createdAt,value
2022-10-05T00:01:29.132Z,9.78
2022-10-05T00:04:24.190Z,9.75
2022-10-05T00:07:18.971Z,9.71
2022-10-05T00:10:16.293Z,9.71
2022-10-05T00:13:13.752Z,9.68
2022-10-05T00:16:10.833Z,9.69
2022-10-05T00:18:59.909Z,9.69
2022-10-05T00:21:48.064Z,9.70
2022-10-05T00:24:35.947Z,9.68
2022-10-05T00:27:27.390Z,9.67
2022-10-05T00:30:18.708Z,9.65
2022-10-05T00:33:06.143Z,9.63
2022-10-05T00:35:55.402Z,9.61
2022-10-05T00:38:43.950Z,9.61
2022-10-05T00:42:02.826Z,9.60
2022-10-05T00:45:07.792Z,9.60
2022-10-05T00:48:43.655Z,9.60
2022-10-05T00:51:37.194Z,9.61
2022-10-05T00:54:39.779Z,9.63
2022-10-05T00:58:03.294Z,9.65
2022-10-05T01:01:24.181Z,9.66
2022-10-05T01:04:35.713Z,9.68
2022-10-05T01:07:44.560Z,9.68
2022-10-05T01:10:35.461Z,9.67
2022-10-05T01:13:47.447Z,9.67
2022-10-05T01:16:59.422Z,9.68
2022-10-05T01:20:36.394Z,9.66
2022-10-05T01:24:01.636Z,9.65
2022-10-05T01:27:32.118Z,9.64
2022-10-05T01:30:22.225Z,9.65
2022-10-05T01:33:29.562Z,9.67
2022-10-05T01:36:41.764Z,9.68
2022-10-05T01:39:59.222Z,9.66
2022-10-05T01:43:05.460Z,9.66
2022-10-05T01:47:09.848Z,9.65
2022-10-05T01:50:11.504Z,9.64
2022-10-05T01:53:10.920Z,9.64
2022-10-05T01:56:09.998Z,9.63
2022-10-05T01:59:22.768Z,9.63
2022-10-05T02:02:17.153Z,9.64
2022-10-05T02:05:16.745Z,9.63
2022-10-05T02:08:15.842Z,9.62
2022-10-05T02:11:12.305Z,9.62
2022-10-05T02:14:12.356Z,9.61
2022-10-05T02:17:08.598Z,9.61
2022-10-05T02:20:07.626Z,9.62
2022-10-05T02:23:02.587Z,9.62
2022-10-05T02:25:55.352Z,9.59
2022-10-05T02:28:54.017Z,9.56
2022-10-05T02:31:52.917Z,9.51
2022-10-05T02:34:43.594Z,9.46
2022-10-05T02:37:58.913Z,9.38
2022-10-05T02:41:08.429Z,9.31
2022-10-05T02:44:21.967Z,9.26
2022-10-05T02:47:30.051Z,9.21
2022-10-05T02:50:31.647Z,9.18
2022-10-05T02:53:53.817Z,9.16
2022-10-05T02:57:10.346Z,9.14
2022-10-05T03:00:04.805Z,9.13
2022-10-05T03:03:30.303Z,9.12
2022-10-05T03:06:38.868Z,9.13
2022-10-05T03:09:34.376Z,9.13
2022-10-05T03:12:38.266Z,9.12
2022-10-05T03:15:39.390Z,9.13
2022-10-05T03:19:22.845Z,9.12
2022-10-05T03:22:58.054Z,9.12
2022-10-05T03:26:01.392Z,9.13
2022-10-05T03:29:29.950Z,9.13
2022-10-05T03:32:45.894Z,9.14
2022-10-05T03:36:01.573Z,9.14
2022-10-05T03:39:14.663Z,9.14
2022-10-05T03:42:56.023Z,9.14
2022-10-05T03:46:17.326Z,9.13
2022-10-05T03:49:15.923Z,9.12
2022-10-05T03:52:37.662Z,9.11
2022-10-05T03:55:44.251Z,9.11
2022-10-05T03:58:42.779Z,9.10
2022-10-05T04:02:06.771Z,9.08
2022-10-05T04:05:05.626Z,9.07
2022-10-05T04:08:08.223Z,9.04
2022-10-05T04:11:04.415Z,9.02
2022-10-05T04:14:12.849Z,9.01
2022-10-05T04:17:14.275Z,8.99
2022-10-05T04:20:27.275Z,9.00
2022-10-05T04:23:47.469Z,8.99
2022-10-05T04:26:57.789Z,9.02
2022-10-05T04:30:02.962Z,9.05
2022-10-05T04:32:58.002Z,9.09
2022-10-05T04:36:08.783Z,9.11
2022-10-05T04:39:25.917Z,9.14
2022-10-05T04:43:08.139Z,9.16
2022-10-05T04:46:33.087Z,9.18
2022-10-05T04:49:51.113Z,9.20
2022-10-05T04:53:12.066Z,9.23
2022-10-05T04:56:11.278Z,9.24
2022-10-05T04:59:54.668Z,9.25
2022-10-05T05:02:47.956Z,9.25
2022-10-05T05:06:17.178Z,9.25
2022-10-05T05:09:34.802Z,9.27
2022-10-05T05:13:05.714Z,9.28
2022-10-05T05:16:18.486Z,9.29
2022-10-05T05:19:31.380Z,9.32
2022-10-05T05:22:29.023Z,9.35
2022-10-05T05:25:40.171Z,9.38
2022-10-05T05:28:47.500Z,9.41
2022-10-05T05:32:13.540Z,9.44
2022-10-05T05:35:32.049Z,9.49
2022-10-05T05:38:44.772Z,9.55
2022-10-05T05:42:20.941Z,9.60
2022-10-05T05:45:33.740Z,9.69
2022-10-05T05:48:32.541Z,9.77
2022-10-05T05:51:44.153Z,9.87
2022-10-05T05:54:39.707Z,9.99
2022-10-05T05:58:00.749Z,10.10
2022-10-05T06:01:32.184Z,10.22
2022-10-05T06:04:36.845Z,10.35
2022-10-05T06:07:30.846Z,10.46
2022-10-05T06:10:41.603Z,10.61
2022-10-05T06:13:40.554Z,10.71
2022-10-05T06:17:06.836Z,10.76
2022-10-05T06:20:04.124Z,10.82
2022-10-05T06:23:02.275Z,10.86
2022-10-05T06:26:39.700Z,10.87
2022-10-05T06:29:50.922Z,10.92
2022-10-05T06:33:01.592Z,10.96
2022-10-05T06:36:07.195Z,11.00
2022-10-05T06:39:24.386Z,11.04
2022-10-05T06:42:40.530Z,11.00
2022-10-05T06:45:53.274Z,10.96
2022-10-05T06:49:46.931Z,10.93
2022-10-05T06:53:28.420Z,10.95
2022-10-05T06:57:01.315Z,10.99
2022-10-05T07:00:04.747Z,11.08
2022-10-05T07:03:28.372Z,11.17
2022-10-05T07:06:38.456Z,11.43
2022-10-05T07:09:32.846Z,11.41
2022-10-05T07:12:58.971Z,11.40
2022-10-05T07:16:05.305Z,11.39
2022-10-05T07:19:35.094Z,11.41
2022-10-05T07:22:31.717Z,11.43
2022-10-05T07:25:28.837Z,11.39
2022-10-05T07:28:35.664Z,11.40
2022-10-05T07:31:36.030Z,11.37
2022-10-05T07:34:58.704Z,11.33
2022-10-05T07:37:54.861Z,11.31
2022-10-05T07:40:54.467Z,11.31
2022-10-05T07:44:12.606Z,11.32
2022-10-05T07:47:15.611Z,11.46
2022-10-05T07:50:15.535Z,11.57
2022-10-05T07:53:19.186Z,11.75
2022-10-05T07:56:36.963Z,11.95
2022-10-05T07:59:38.903Z,12.08
2022-10-05T08:02:51.432Z,12.18
2022-10-05T08:05:44.956Z,12.35
2022-10-05T08:09:47.365Z,12.48
2022-10-05T08:13:19.192Z,12.51
2022-10-05T08:16:14.890Z,12.54
2022-10-05T08:19:40.591Z,12.61
2022-10-05T08:22:37.971Z,12.79
2022-10-05T08:25:45.013Z,12.97
2022-10-05T08:28:44.044Z,13.13
2022-10-05T08:31:37.403Z,13.44
2022-10-05T08:34:46.028Z,13.82
2022-10-05T08:37:40.228Z,14.34
2022-10-05T08:41:11.533Z,15.04
2022-10-05T08:44:17.563Z,15.57
2022-10-05T08:47:28.280Z,15.61
2022-10-05T08:50:31.968Z,15.77
2022-10-05T08:53:47.564Z,15.73
2022-10-05T08:57:05.829Z,15.69
2022-10-05T09:00:10.561Z,15.74
2022-10-05T09:03:34.774Z,15.70
2022-10-05T09:06:43.670Z,15.53
2022-10-05T09:09:49.414Z,15.16
2022-10-05T09:13:21.739Z,14.94
2022-10-05T09:16:53.143Z,14.78
2022-10-05T09:20:09.177Z,14.72
2022-10-05T09:23:26.986Z,14.46
2022-10-05T09:26:41.156Z,14.52
2022-10-05T09:29:47.801Z,14.64
2022-10-05T09:32:53.941Z,14.87
2022-10-05T09:36:03.365Z,15.07
2022-10-05T09:39:16.462Z,15.13
2022-10-05T09:43:28.294Z,15.32
2022-10-05T09:46:43.072Z,15.52
2022-10-05T09:49:58.752Z,16.01
2022-10-05T09:53:00.899Z,16.69
2022-10-05T09:56:15.527Z,16.53
2022-10-05T09:59:43.935Z,16.33
2022-10-05T10:02:56.217Z,16.28
2022-10-05T10:05:49.980Z,16.05
2022-10-05T10:09:07.838Z,15.83
2022-10-05T10:12:19.639Z,15.74
2022-10-05T10:15:43.048Z,15.69
2022-10-05T10:18:52.525Z,15.73
2022-10-05T10:22:33.016Z,15.77
2022-10-05T10:25:24.284Z,15.73
2022-10-05T10:28:40.173Z,15.98
2022-10-05T10:32:10.570Z,16.55
2022-10-05T10:35:42.211Z,16.78
2022-10-05T10:38:52.013Z,17.00
2022-10-05T10:42:01.038Z,17.34
2022-10-05T10:45:13.515Z,17.66
2022-10-05T10:48:11.126Z,17.65
2022-10-05T10:51:36.541Z,17.65
2022-10-05T10:55:05.601Z,18.04
2022-10-05T10:58:57.381Z,18.08
2022-10-05T11:02:22.555Z,18.16
2022-10-05T11:06:02.153Z,18.35
2022-10-05T11:09:24.116Z,17.97
2022-10-05T11:13:03.598Z,17.86
2022-10-05T11:16:36.640Z,17.68
2022-10-05T11:20:03.559Z,17.69
2022-10-05T11:23:18.329Z,17.57
2022-10-05T11:26:42.867Z,17.48
2022-10-05T11:30:02.635Z,17.41
2022-10-05T11:33:24.519Z,17.16
2022-10-05T11:36:53.470Z,17.02
2022-10-05T11:40:13.456Z,17.05
2022-10-05T11:43:38.377Z,17.08
2022-10-05T11:47:05.196Z,16.99
2022-10-05T11:49:59.413Z,16.78
2022-10-05T11:53:00.904Z,16.78
2022-10-05T11:56:13.966Z,16.84
2022-10-05T11:59:27.206Z,16.89
2022-10-05T12:02:47.032Z,16.99
2022-10-05T12:06:08.967Z,16.92
2022-10-05T12:09:18.716Z,16.77
2022-10-05T12:12:22.521Z,16.67
2022-10-05T12:15:29.769Z,16.60
2022-10-05T12:18:30.445Z,16.49
2022-10-05T12:21:56.742Z,16.41
2022-10-05T12:25:02.921Z,16.25
2022-10-05T12:27:57.265Z,16.10
2022-10-05T12:31:08.828Z,16.02
2022-10-05T12:34:04.383Z,16.03
2022-10-05T12:37:38.643Z,16.14
2022-10-05T12:40:52.423Z,16.27
2022-10-05T12:43:53.920Z,16.30
2022-10-05T12:46:44.066Z,16.41
2022-10-05T12:49:44.198Z,16.51
2022-10-05T12:53:23.526Z,16.57
2022-10-05T12:56:50.307Z,16.74
2022-10-05T13:00:00.345Z,16.79
2022-10-05T13:02:55.285Z,16.83
2022-10-05T13:06:07.566Z,16.79
2022-10-05T13:09:11.438Z,16.66
2022-10-05T13:12:13.944Z,16.56
2022-10-05T13:15:14.362Z,16.48
2022-10-05T13:18:25.356Z,16.38
2022-10-05T13:21:30.163Z,16.27
2022-10-05T13:24:34.790Z,16.26
2022-10-05T13:27:29.614Z,16.22
2022-10-05T13:30:21.049Z,16.06
2022-10-05T13:33:33.466Z,16.01
2022-10-05T13:36:46.099Z,15.98
2022-10-05T13:40:03.879Z,16.00
2022-10-05T13:43:06.318Z,16.06
2022-10-05T13:46:28.671Z,16.05
2022-10-05T13:49:23.750Z,16.08
2022-10-05T13:52:37.812Z,16.03
2022-10-05T13:55:49.837Z,16.00
2022-10-05T13:59:20.315Z,15.89
2022-10-05T14:02:42.804Z,15.85
2022-10-05T14:05:31.917Z,15.82
2022-10-05T14:08:19.663Z,15.75
2022-10-05T14:11:36.928Z,15.66
2022-10-05T14:14:31.820Z,15.59
2022-10-05T14:17:43.609Z,15.52
2022-10-05T14:20:34.567Z,15.42
2022-10-05T14:23:27.278Z,15.31
2022-10-05T14:26:33.054Z,15.26
2022-10-05T14:29:35.385Z,15.19
2022-10-05T14:32:25.894Z,15.13
2022-10-05T14:35:17.507Z,15.08
2022-10-05T14:38:30.241Z,15.03
2022-10-05T14:41:22.723Z,14.94
2022-10-05T14:44:13.510Z,14.89
2022-10-05T14:47:20.457Z,14.81
2022-10-05T14:50:26.438Z,14.75
2022-10-05T14:53:18.861Z,14.65
2022-10-05T14:56:40.615Z,14.56
2022-10-05T15:00:12.501Z,14.49
2022-10-05T15:03:19.624Z,14.44
2022-10-05T15:06:21.581Z,14.37
2022-10-05T15:09:53.898Z,14.30
2022-10-05T15:12:48.875Z,14.20
2022-10-05T15:15:50.257Z,14.12
2022-10-05T15:18:57.668Z,14.06
2022-10-05T15:22:19.017Z,13.99
2022-10-05T15:25:26.956Z,13.91
2022-10-05T15:28:40.725Z,13.86
2022-10-05T15:31:40.804Z,13.77
2022-10-05T15:34:41.583Z,13.69
2022-10-05T15:37:53.814Z,13.63
2022-10-05T15:40:55.101Z,13.57
2022-10-05T15:44:15.078Z,13.49
2022-10-05T15:47:14.339Z,13.41
2022-10-05T15:50:22.607Z,13.36
2022-10-05T15:53:27.022Z,13.28
2022-10-05T15:56:36.379Z,13.23
2022-10-05T15:59:54.365Z,13.17
2022-10-05T16:03:33.198Z,13.09
2022-10-05T16:06:45.566Z,13.03
2022-10-05T16:09:45.461Z,12.96
2022-10-05T16:13:05.164Z,12.91
2022-10-05T16:16:21.065Z,12.86
2022-10-05T16:19:42.083Z,12.82
2022-10-05T16:22:59.819Z,12.79
2022-10-05T16:26:45.520Z,12.75
2022-10-05T16:29:47.625Z,12.70
2022-10-05T16:32:46.429Z,12.64
2022-10-05T16:35:43.027Z,12.57
2022-10-05T16:38:59.253Z,12.51
2022-10-05T16:42:21.626Z,12.45
2022-10-05T16:45:51.859Z,12.37
2022-10-05T16:48:58.941Z,12.27
2022-10-05T16:52:20.512Z,12.18
2022-10-05T16:55:51.327Z,12.11
2022-10-05T16:59:20.307Z,12.05
2022-10-05T17:02:52.092Z,12.00
2022-10-05T17:05:59.081Z,11.93
2022-10-05T17:09:18.315Z,11.87
2022-10-05T17:12:31.318Z,11.82
2022-10-05T17:15:48.225Z,11.77
2022-10-05T17:19:19.783Z,11.71
2022-10-05T17:22:26.760Z,11.66
2022-10-05T17:26:06.765Z,11.61
2022-10-05T17:29:47.746Z,11.53
2022-10-05T17:32:55.195Z,11.49
2022-10-05T17:36:13.095Z,11.46
2022-10-05T17:39:22.517Z,11.41
2022-10-05T17:42:34.624Z,11.36
2022-10-05T17:45:34.611Z,11.31
2022-10-05T17:48:54.490Z,11.27
2022-10-05T17:52:00.956Z,11.24
2022-10-05T17:55:07.374Z,11.19
2022-10-05T17:57:59.928Z,11.18
2022-10-05T18:01:01.670Z,11.15
2022-10-05T18:03:51.790Z,11.12
2022-10-05T18:07:31.055Z,11.07
2022-10-05T18:10:29.296Z,11.03
2022-10-05T18:13:48.414Z,10.99
2022-10-05T18:17:11.832Z,10.95
2022-10-05T18:20:31.744Z,10.93
2022-10-05T18:23:24.015Z,10.89
2022-10-05T18:26:57.497Z,10.86
2022-10-05T18:30:25.845Z,10.81
2022-10-05T18:33:43.253Z,10.78
2022-10-05T18:37:10.783Z,10.73
2022-10-05T18:40:51.438Z,10.68
2022-10-05T18:44:21.792Z,10.65
2022-10-05T18:47:23.231Z,10.60
2022-10-05T18:50:34.025Z,10.58
2022-10-05T18:53:47.750Z,10.57
2022-10-05T18:56:45.661Z,10.55
2022-10-05T18:59:55.030Z,10.54
2022-10-05T19:03:04.677Z,10.53
2022-10-05T19:06:30.071Z,10.52
2022-10-05T19:09:56.279Z,10.50
2022-10-05T19:13:20.787Z,10.47
2022-10-05T19:16:57.659Z,10.45
2022-10-05T19:20:17.649Z,10.42
2022-10-05T19:23:33.692Z,10.38
2022-10-05T19:26:50.165Z,10.34
2022-10-05T19:30:24.198Z,10.31
2022-10-05T19:33:36.221Z,10.27
2022-10-05T19:36:44.119Z,10.25
2022-10-05T19:39:58.793Z,10.20
2022-10-05T19:43:19.521Z,10.19
2022-10-05T19:46:38.024Z,10.17
2022-10-05T19:50:18.859Z,10.15
2022-10-05T19:53:37.307Z,10.13
2022-10-05T19:56:46.086Z,10.10
2022-10-05T19:59:34.913Z,10.09
2022-10-05T20:02:27.218Z,10.09
2022-10-05T20:05:15.604Z,10.09
2022-10-05T20:08:06.229Z,10.10
2022-10-05T20:11:11.880Z,10.10
2022-10-05T20:14:02.504Z,10.10
2022-10-05T20:17:44.727Z,10.11
2022-10-05T20:20:43.264Z,10.12
2022-10-05T20:23:33.955Z,10.13
2022-10-05T20:27:05.202Z,10.13
2022-10-05T20:29:53.376Z,10.14
2022-10-05T20:32:41.812Z,10.14
2022-10-05T20:35:30.996Z,10.15
2022-10-05T20:38:18.853Z,10.16
2022-10-05T20:41:06.764Z,10.16
2022-10-05T20:43:55.961Z,10.17
2022-10-05T20:46:46.687Z,10.17
2022-10-05T20:49:37.519Z,10.18
2022-10-05T20:52:25.908Z,10.19
2022-10-05T20:55:14.722Z,10.18
2022-10-05T20:58:02.297Z,10.18
2022-10-05T21:01:08.840Z,10.18
2022-10-05T21:03:56.771Z,10.17
2022-10-05T21:06:45.957Z,10.17
2022-10-05T21:09:34.146Z,10.16
2022-10-05T21:12:21.747Z,10.17
2022-10-05T21:15:10.675Z,10.18
2022-10-05T21:17:58.499Z,10.20
2022-10-05T21:20:48.089Z,10.22
2022-10-05T21:23:36.708Z,10.24
2022-10-05T21:26:24.405Z,10.26
2022-10-05T21:29:13.181Z,10.27
2022-10-05T21:32:01.482Z,10.30
2022-10-05T21:34:50.106Z,10.32
2022-10-05T21:37:38.243Z,10.36
2022-10-05T21:40:26.218Z,10.39
2022-10-05T21:43:14.625Z,10.42
2022-10-05T21:46:02.969Z,10.46
2022-10-05T21:48:50.991Z,10.50
2022-10-05T21:51:40.163Z,10.51
2022-10-05T21:54:28.851Z,10.51
2022-10-05T21:57:16.894Z,10.51
2022-10-05T22:00:08.732Z,10.51
2022-10-05T22:02:56.896Z,10.50
2022-10-05T22:05:44.684Z,10.50
2022-10-05T22:08:34.578Z,10.50
2022-10-05T22:11:23.029Z,10.52
2022-10-05T22:14:14.712Z,10.53
2022-10-05T22:17:02.908Z,10.53
2022-10-05T22:19:51.476Z,10.55
2022-10-05T22:22:39.159Z,10.58
2022-10-05T22:25:26.998Z,10.60
2022-10-05T22:28:16.873Z,10.61
2022-10-05T22:31:07.979Z,10.62
2022-10-05T22:33:55.939Z,10.63
2022-10-05T22:36:43.951Z,10.66
2022-10-05T22:39:31.621Z,10.68
2022-10-05T22:42:19.617Z,10.70
2022-10-05T22:45:08.961Z,10.73
2022-10-05T22:47:56.376Z,10.77
2022-10-05T22:50:45.741Z,10.81
2022-10-05T22:53:34.911Z,10.85
2022-10-05T22:56:22.897Z,10.85
2022-10-05T22:59:11.087Z,10.87
2022-10-05T23:01:58.894Z,10.87
2022-10-05T23:04:47.067Z,10.85
2022-10-05T23:07:40.860Z,10.84
2022-10-05T23:10:29.105Z,10.82
2022-10-05T23:13:17.128Z,10.81
2022-10-05T23:16:21.417Z,10.79
2022-10-05T23:19:09.256Z,10.76
2022-10-05T23:21:57.287Z,10.72
2022-10-05T23:24:45.337Z,10.71
2022-10-05T23:27:41.487Z,10.70
2022-10-05T23:30:29.783Z,10.69
2022-10-05T23:33:17.421Z,10.69
2022-10-05T23:36:15.716Z,10.68
2022-10-05T23:39:03.733Z,10.68
2022-10-05T23:41:51.234Z,10.65
2022-10-05T23:44:39.198Z,10.63
2022-10-05T23:47:27.220Z,10.61
2022-10-05T23:50:15.598Z,10.60
2022-10-05T23:53:04.635Z,10.59
2022-10-05T23:55:54.126Z,10.57
2022-10-05T23:58:42.110Z,10.56
